createdAt,value
2019-03-21T00:02:26.013Z,2.50
2019-03-21T00:04:52.492Z,4.30
2019-03-21T00:07:18.500Z,6.73
2019-03-21T00:10:08.333Z,7.80
2019-03-21T00:12:34.344Z,3.70
2019-03-21T00:15:16.393Z,4.87
2019-03-21T00:17:44.929Z,4.20
2019-03-21T00:20:13.251Z,6.37
2019-03-21T00:22:39.516Z,7.57
2019-03-21T00:25:09.138Z,5.10
2019-03-21T00:27:35.163Z,5.70
2019-03-21T00:30:01.179Z,5.80
2019-03-21T00:32:27.493Z,5.63
2019-03-21T00:34:53.516Z,3.03
2019-03-21T00:37:19.536Z,4.50
2019-03-21T00:39:45.532Z,3.70
2019-03-21T00:42:11.792Z,3.97
2019-03-21T00:44:37.796Z,4.47
2019-03-21T00:47:03.831Z,9.07
2019-03-21T00:49:29.834Z,5.63
2019-03-21T00:51:56.105Z,5.53
2019-03-21T00:54:22.093Z,7.40
2019-03-21T00:56:48.109Z,7.70
2019-03-21T00:59:14.119Z,7.27
2019-03-21T01:01:40.136Z,6.47
2019-03-21T01:04:06.144Z,6.37
2019-03-21T01:06:32.449Z,5.30
2019-03-21T01:08:58.474Z,9.83
2019-03-21T01:11:24.487Z,5.47
2019-03-21T01:13:50.830Z,4.37
2019-03-21T01:16:17.166Z,7.70
2019-03-21T01:18:44.994Z,2.73
2019-03-21T01:21:11.225Z,4.93
2019-03-21T01:23:37.242Z,4.50
2019-03-21T01:26:07.069Z,5.23
2019-03-21T01:28:33.434Z,7.40
2019-03-21T01:30:59.754Z,5.97
2019-03-21T01:33:25.780Z,8.67
2019-03-21T01:35:51.788Z,4.90
2019-03-21T01:38:17.808Z,8.00
2019-03-21T01:40:50.595Z,3.33
2019-03-21T01:43:17.519Z,4.20
2019-03-21T01:45:43.521Z,3.90
2019-03-21T01:48:09.852Z,5.23
2019-03-21T01:50:38.971Z,8.37
2019-03-21T01:53:05.077Z,5.53
2019-03-21T01:55:31.101Z,3.40
2019-03-21T01:57:57.177Z,3.83
2019-03-21T02:00:44.985Z,3.97
2019-03-21T02:03:11.271Z,4.93
2019-03-21T02:05:37.591Z,4.40
2019-03-21T02:08:03.927Z,4.67
2019-03-21T02:10:30.245Z,6.27
2019-03-21T02:12:56.264Z,5.57
2019-03-21T02:15:22.285Z,7.57
2019-03-21T02:17:49.093Z,4.17
2019-03-21T02:20:16.910Z,13.37
2019-03-21T02:22:43.239Z,5.30
2019-03-21T02:25:30.996Z,7.37
2019-03-21T02:27:57.601Z,4.17
2019-03-21T02:30:36.478Z,6.30
2019-03-21T02:33:23.509Z,5.27
2019-03-21T02:35:49.556Z,3.70
2019-03-21T02:38:15.562Z,5.87
2019-03-21T02:40:42.964Z,7.37
2019-03-21T02:43:09.305Z,4.27
2019-03-21T02:45:35.320Z,6.30
2019-03-21T02:48:01.339Z,4.87
2019-03-21T02:50:38.838Z,7.03
2019-03-21T02:53:06.091Z,4.17
2019-03-21T02:55:32.110Z,6.70
2019-03-21T02:57:58.135Z,7.03
2019-03-21T03:00:30.619Z,4.60
2019-03-21T03:02:58.159Z,4.73
2019-03-21T03:05:29.502Z,8.40
2019-03-21T03:07:55.560Z,5.00
2019-03-21T03:10:33.790Z,7.30
2019-03-21T03:13:00.014Z,4.73
2019-03-21T03:15:28.831Z,6.27
2019-03-21T03:17:54.851Z,5.37
2019-03-21T03:20:21.138Z,6.57
2019-03-21T03:22:47.189Z,6.40
2019-03-21T03:25:15.179Z,3.63
2019-03-21T03:27:42.514Z,8.47
2019-03-21T03:30:14.774Z,5.07
2019-03-21T03:32:40.789Z,4.00
2019-03-21T03:35:09.328Z,8.23
2019-03-21T03:37:35.364Z,6.67
2019-03-21T03:40:02.213Z,4.97
2019-03-21T03:42:28.356Z,6.27
2019-03-21T03:44:54.497Z,3.27
2019-03-21T03:47:20.915Z,3.67
2019-03-21T03:49:46.943Z,2.30
2019-03-21T03:52:12.962Z,5.37
2019-03-21T03:54:38.986Z,6.00
2019-03-21T03:57:05.032Z,10.17
2019-03-21T03:59:31.350Z,3.13
2019-03-21T04:01:57.462Z,5.03
2019-03-21T04:04:23.499Z,11.57
2019-03-21T04:06:49.611Z,5.63
2019-03-21T04:09:15.937Z,8.57
2019-03-21T04:11:42.242Z,6.07
2019-03-21T04:14:08.740Z,4.57
2019-03-21T04:16:34.741Z,5.63
2019-03-21T04:19:00.766Z,4.20
2019-03-21T04:21:27.110Z,3.53
2019-03-21T04:23:53.435Z,5.17
2019-03-21T04:26:26.042Z,4.53
2019-03-21T04:28:52.160Z,3.80
2019-03-21T04:31:18.196Z,6.70
2019-03-21T04:33:45.606Z,6.10
2019-03-21T04:36:11.965Z,4.17
2019-03-21T04:38:37.962Z,4.60
2019-03-21T04:41:04.425Z,7.53
2019-03-21T04:43:30.422Z,8.37
2019-03-21T04:46:03.326Z,7.57
2019-03-21T04:48:24.378Z,6.10
2019-03-21T04:50:50.659Z,5.67
2019-03-21T04:53:16.666Z,3.60
2019-03-21T04:55:42.690Z,26.10
2019-03-21T04:58:08.703Z,3.07
2019-03-21T05:00:44.378Z,7.00
2019-03-21T05:03:12.882Z,8.63
2019-03-21T05:05:38.911Z,5.53
2019-03-21T05:08:05.038Z,2.10
2019-03-21T05:10:31.059Z,4.50
2019-03-21T05:12:57.417Z,6.00
2019-03-21T05:15:26.643Z,6.93
2019-03-21T05:17:55.980Z,5.87
2019-03-21T05:20:25.216Z,7.83
2019-03-21T05:22:51.219Z,8.87
2019-03-21T05:25:17.237Z,4.17
2019-03-21T05:27:43.284Z,5.00
2019-03-21T05:30:12.695Z,6.80
2019-03-21T05:32:38.763Z,6.47
2019-03-21T05:35:07.591Z,3.00
2019-03-21T05:37:33.634Z,7.23
2019-03-21T05:39:59.666Z,7.40
2019-03-21T05:42:25.784Z,7.23
2019-03-21T05:44:51.829Z,3.67
2019-03-21T05:47:18.100Z,6.63
2019-03-21T05:49:44.124Z,5.20
2019-03-21T05:52:10.466Z,4.80
2019-03-21T05:54:36.488Z,2.67
2019-03-21T05:57:02.526Z,6.30
2019-03-21T05:59:28.836Z,6.90
2019-03-21T06:01:54.839Z,7.07
2019-03-21T06:04:21.202Z,5.93
2019-03-21T06:06:54.280Z,4.07
2019-03-21T06:09:21.232Z,4.87
2019-03-21T06:11:54.318Z,1.70
2019-03-21T06:14:20.356Z,5.60
2019-03-21T06:16:46.367Z,4.97
2019-03-21T06:19:16.219Z,4.47
2019-03-21T06:21:51.646Z,7.27
2019-03-21T06:24:39.145Z,5.17
2019-03-21T06:27:31.303Z,5.50
2019-03-21T06:29:57.771Z,7.50
2019-03-21T06:32:25.582Z,4.80
2019-03-21T06:34:51.603Z,7.27
2019-03-21T06:37:17.635Z,6.57
2019-03-21T06:39:43.966Z,7.27
2019-03-21T06:42:09.996Z,6.93
2019-03-21T06:44:36.031Z,11.17
2019-03-21T06:47:02.065Z,10.50
2019-03-21T06:49:28.099Z,9.40
2019-03-21T06:51:54.120Z,10.53
2019-03-21T06:54:20.443Z,7.07
2019-03-21T06:56:46.758Z,5.93
2019-03-21T06:59:12.787Z,8.17
2019-03-21T07:01:39.114Z,9.30
2019-03-21T07:04:07.291Z,7.20
2019-03-21T07:06:33.066Z,13.80
2019-03-21T07:08:59.342Z,7.73
2019-03-21T07:11:25.386Z,9.30
2019-03-21T07:13:51.406Z,22.02
2019-03-21T07:16:17.445Z,13.77
2019-03-21T07:18:43.743Z,14.87
2019-03-21T07:21:10.078Z,6.25
2019-03-21T07:23:36.090Z,16.37
2019-03-21T07:26:02.118Z,13.38
2019-03-21T07:28:28.133Z,12.98
2019-03-21T07:30:54.488Z,8.98
2019-03-21T07:33:20.491Z,9.03
2019-03-21T07:35:46.522Z,11.28
2019-03-21T07:38:12.551Z,12.23
2019-03-21T07:40:38.555Z,7.65
2019-03-21T07:43:04.589Z,7.83
2019-03-21T07:45:30.599Z,13.58
2019-03-21T07:47:56.639Z,11.85
2019-03-21T07:50:22.651Z,10.78
2019-03-21T07:52:48.698Z,19.10
2019-03-21T07:55:14.723Z,12.23
2019-03-21T07:57:40.742Z,13.35
2019-03-21T08:00:15.063Z,11.00
2019-03-21T08:02:41.086Z,14.55
2019-03-21T08:05:08.866Z,9.13
2019-03-21T08:07:35.078Z,14.25
2019-03-21T08:10:01.118Z,12.60
2019-03-21T08:12:27.166Z,10.00
2019-03-21T08:14:53.202Z,12.60
2019-03-21T08:17:19.224Z,14.25
2019-03-21T08:19:45.510Z,15.95
2019-03-21T08:22:11.533Z,11.20
2019-03-21T08:24:37.579Z,14.98
2019-03-21T08:27:03.604Z,10.53
2019-03-21T08:29:29.635Z,16.67
2019-03-21T08:31:55.652Z,7.10
2019-03-21T08:34:21.690Z,10.75
2019-03-21T08:36:47.710Z,8.35
2019-03-21T08:39:13.764Z,11.45
2019-03-21T08:41:40.035Z,6.97
2019-03-21T08:44:06.066Z,10.13
2019-03-21T08:46:32.402Z,14.85
2019-03-21T08:48:58.711Z,13.15
2019-03-21T08:51:24.744Z,11.20
2019-03-21T08:53:50.798Z,18.90
2019-03-21T08:56:17.110Z,12.90
2019-03-21T08:58:43.128Z,12.20
2019-03-21T09:01:09.452Z,13.60
2019-03-21T09:03:35.468Z,12.90
2019-03-21T09:06:01.490Z,11.90
2019-03-21T09:08:27.495Z,13.03
2019-03-21T09:10:53.851Z,15.43
2019-03-21T09:13:19.882Z,17.73
2019-03-21T09:15:45.907Z,18.00
2019-03-21T09:18:11.928Z,12.03
2019-03-21T09:20:37.951Z,15.43
2019-03-21T09:23:04.388Z,9.67
2019-03-21T09:25:30.419Z,10.77
2019-03-21T09:28:02.506Z,14.90
2019-03-21T09:30:24.360Z,12.20
2019-03-21T09:32:50.380Z,11.20
2019-03-21T09:35:16.691Z,17.53
2019-03-21T09:37:42.802Z,6.73
2019-03-21T09:40:10.324Z,16.80
2019-03-21T09:42:36.343Z,11.50
2019-03-21T09:45:06.743Z,12.10
2019-03-21T09:47:32.794Z,14.60
2019-03-21T09:49:59.407Z,9.97
2019-03-21T09:52:25.611Z,9.87
2019-03-21T09:54:51.919Z,14.67
2019-03-21T09:57:17.945Z,12.93
2019-03-21T09:59:43.979Z,10.47
2019-03-21T10:02:10.019Z,8.97
2019-03-21T10:04:36.442Z,10.67
2019-03-21T10:07:02.579Z,8.00
2019-03-21T10:09:28.615Z,12.87
2019-03-21T10:11:54.924Z,11.30
2019-03-21T10:14:20.970Z,9.40
2019-03-21T10:16:47.025Z,10.53
2019-03-21T10:19:13.056Z,8.67
2019-03-21T10:21:43.634Z,11.20
2019-03-21T10:24:07.227Z,11.37
2019-03-21T10:26:33.266Z,8.53
2019-03-21T10:28:59.284Z,6.33
2019-03-21T10:31:25.324Z,10.27
2019-03-21T10:33:51.414Z,9.23
2019-03-21T10:36:17.435Z,10.17
2019-03-21T10:38:43.733Z,11.87
2019-03-21T10:41:09.743Z,6.87
2019-03-21T10:43:36.086Z,8.47
2019-03-21T10:46:02.113Z,7.33
2019-03-21T10:48:28.370Z,9.10
2019-03-21T10:50:54.396Z,11.93
2019-03-21T10:53:20.411Z,8.57
2019-03-21T10:55:46.722Z,20.20
2019-03-21T10:58:12.762Z,6.53
2019-03-21T11:00:38.771Z,8.03
2019-03-21T11:03:04.990Z,10.30
2019-03-21T11:05:31.004Z,12.53
2019-03-21T11:07:57.018Z,5.60
2019-03-21T11:10:23.287Z,8.27
2019-03-21T11:12:49.527Z,6.97
2019-03-21T11:15:15.770Z,7.43
2019-03-21T11:17:41.967Z,10.03
2019-03-21T11:20:08.180Z,8.03
2019-03-21T11:22:34.201Z,7.40
2019-03-21T11:25:00.347Z,6.27
2019-03-21T11:27:26.802Z,7.17
2019-03-21T11:29:52.823Z,9.00
2019-03-21T11:32:18.863Z,10.20
2019-03-21T11:34:45.172Z,9.47
2019-03-21T11:37:11.200Z,6.30
2019-03-21T11:39:37.227Z,8.93
2019-03-21T11:42:03.238Z,7.70
2019-03-21T11:44:29.256Z,10.27
2019-03-21T11:46:55.263Z,10.17
2019-03-21T11:49:21.618Z,7.43
2019-03-21T11:51:47.639Z,10.57
2019-03-21T11:54:13.671Z,10.03
2019-03-21T11:56:40.007Z,6.57
2019-03-21T11:59:06.332Z,9.23
2019-03-21T12:01:32.351Z,5.47
2019-03-21T12:03:58.699Z,7.03
2019-03-21T12:06:24.712Z,8.97
2019-03-21T12:08:50.730Z,5.97
2019-03-21T12:11:16.754Z,6.17
2019-03-21T12:13:42.788Z,9.10
2019-03-21T12:16:08.807Z,5.63
2019-03-21T12:18:35.136Z,4.67
2019-03-21T12:21:01.182Z,6.10
2019-03-21T12:23:27.206Z,6.67
2019-03-21T12:25:53.518Z,4.67
2019-03-21T12:28:19.535Z,9.07
2019-03-21T12:30:45.574Z,3.67
2019-03-21T12:33:11.891Z,8.00
2019-03-21T12:35:38.231Z,8.00
2019-03-21T12:38:04.547Z,6.73
2019-03-21T12:40:30.578Z,9.23
2019-03-21T12:42:56.623Z,8.80
2019-03-21T12:45:23.035Z,8.33
2019-03-21T12:47:49.143Z,7.03
2019-03-21T12:50:15.411Z,5.77
2019-03-21T12:52:41.804Z,7.40
2019-03-21T12:55:07.972Z,6.33
2019-03-21T12:57:34.011Z,5.93
2019-03-21T13:00:00.022Z,7.60
2019-03-21T13:02:32.295Z,7.27
2019-03-21T13:04:54.218Z,7.13
2019-03-21T13:07:20.734Z,8.70
2019-03-21T13:09:47.381Z,9.80
2019-03-21T13:12:14.985Z,10.43
2019-03-21T13:14:41.271Z,4.73
2019-03-21T13:17:07.283Z,14.00
2019-03-21T13:19:33.631Z,11.73
2019-03-21T13:21:59.686Z,9.10
2019-03-21T13:24:25.711Z,11.23
2019-03-21T13:26:52.010Z,6.73
2019-03-21T13:29:18.055Z,8.37
2019-03-21T13:31:44.084Z,9.40
2019-03-21T13:34:10.090Z,6.13
2019-03-21T13:36:36.114Z,6.27
2019-03-21T13:39:04.948Z,8.87
2019-03-21T13:41:35.252Z,10.50
2019-03-21T13:44:01.382Z,7.00
2019-03-21T13:46:27.690Z,15.87
2019-03-21T13:48:54.647Z,8.20
2019-03-21T13:51:21.206Z,9.00
2019-03-21T13:53:47.210Z,11.47
2019-03-21T13:56:13.245Z,7.87
2019-03-21T13:58:39.583Z,8.03
2019-03-21T14:01:05.677Z,13.23
2019-03-21T14:03:32.251Z,9.70
2019-03-21T14:05:58.295Z,7.57
2019-03-21T14:08:24.684Z,9.93
2019-03-21T14:10:50.770Z,8.20
2019-03-21T14:13:16.771Z,5.77
2019-03-21T14:15:42.854Z,4.87
2019-03-21T14:18:08.890Z,6.80
2019-03-21T14:20:35.224Z,13.50
2019-03-21T14:23:01.247Z,6.50
2019-03-21T14:25:27.582Z,7.83
2019-03-21T14:27:53.629Z,7.00
2019-03-21T14:30:19.924Z,6.17
2019-03-21T14:32:46.270Z,8.37
2019-03-21T14:35:12.929Z,7.33
2019-03-21T14:37:38.973Z,11.67
2019-03-21T14:40:07.718Z,7.37
2019-03-21T14:42:33.788Z,5.87
2019-03-21T14:44:59.985Z,7.27
2019-03-21T14:47:35.814Z,6.97
2019-03-21T14:49:54.049Z,6.87
2019-03-21T14:52:20.112Z,6.50
2019-03-21T14:54:46.118Z,8.20
2019-03-21T14:57:12.139Z,5.47
2019-03-21T14:59:38.155Z,5.20
2019-03-21T15:02:04.178Z,9.27
2019-03-21T15:04:30.527Z,4.17
2019-03-21T15:06:56.543Z,7.27
2019-03-21T15:09:22.675Z,3.43
2019-03-21T15:11:49.047Z,3.23
2019-03-21T15:14:15.340Z,4.83
2019-03-21T15:16:41.648Z,4.70
2019-03-21T15:19:07.670Z,7.07
2019-03-21T15:21:34.005Z,6.27
2019-03-21T15:24:00.089Z,4.50
2019-03-21T15:26:26.263Z,11.10
2019-03-21T15:28:52.606Z,4.17
2019-03-21T15:31:18.633Z,4.07
2019-03-21T15:33:44.970Z,6.70
2019-03-21T15:36:10.986Z,5.43
2019-03-21T15:38:37.036Z,10.10
2019-03-21T15:41:03.078Z,4.50
2019-03-21T15:43:29.128Z,4.70
2019-03-21T15:45:55.146Z,5.53
2019-03-21T15:48:21.236Z,6.93
2019-03-21T15:50:47.308Z,4.67
2019-03-21T15:53:13.327Z,6.90
2019-03-21T15:55:39.348Z,6.67
2019-03-21T15:58:05.471Z,10.87
2019-03-21T16:00:41.243Z,5.00
2019-03-21T16:03:08.612Z,6.07
2019-03-21T16:05:35.470Z,8.70
2019-03-21T16:08:01.600Z,6.93
2019-03-21T16:10:27.717Z,12.17
2019-03-21T16:12:53.734Z,7.50
2019-03-21T16:15:19.746Z,9.77
2019-03-21T16:17:46.092Z,6.50
2019-03-21T16:20:12.223Z,7.60
2019-03-21T16:22:38.263Z,7.37
2019-03-21T16:25:07.903Z,7.30
2019-03-21T16:27:35.527Z,6.63
2019-03-21T16:30:06.491Z,5.90
2019-03-21T16:32:32.690Z,6.13
2019-03-21T16:34:58.986Z,6.83
2019-03-21T16:37:25.007Z,7.10
2019-03-21T16:39:51.051Z,8.43
2019-03-21T16:42:17.063Z,7.70
2019-03-21T16:44:43.434Z,6.23
2019-03-21T16:47:09.667Z,5.20
2019-03-21T16:49:35.715Z,7.07
2019-03-21T16:52:01.719Z,7.87
2019-03-21T16:54:30.238Z,6.73
2019-03-21T16:56:55.976Z,6.60
2019-03-21T16:59:22.005Z,4.13
2019-03-21T17:01:48.326Z,4.40
2019-03-21T17:04:14.361Z,6.23
2019-03-21T17:06:40.371Z,9.03
2019-03-21T17:09:07.438Z,7.23
2019-03-21T17:11:33.450Z,8.50
2019-03-21T17:13:59.647Z,5.57
2019-03-21T17:16:25.911Z,10.57
2019-03-21T17:18:51.930Z,6.10
2019-03-21T17:21:18.286Z,4.50
2019-03-21T17:23:44.519Z,6.43
2019-03-21T17:26:10.567Z,6.17
2019-03-21T17:28:36.854Z,5.57
2019-03-21T17:31:02.923Z,12.33
2019-03-21T17:33:29.031Z,4.37
2019-03-21T17:35:55.259Z,5.57
2019-03-21T17:38:21.559Z,7.90
2019-03-21T17:40:47.591Z,6.87
2019-03-21T17:43:14.023Z,7.27
2019-03-21T17:45:40.055Z,7.77
2019-03-21T17:48:06.174Z,4.43
2019-03-21T17:50:32.198Z,6.10
2019-03-21T17:52:58.223Z,10.70
2019-03-21T17:55:24.274Z,8.10
2019-03-21T17:57:50.283Z,7.13
2019-03-21T18:00:21.106Z,5.37
2019-03-21T18:02:47.326Z,5.63
2019-03-21T18:05:13.353Z,7.93
2019-03-21T18:07:39.704Z,4.43
2019-03-21T18:10:15.589Z,6.30
2019-03-21T18:12:41.610Z,3.87
2019-03-21T18:15:08.010Z,3.33
2019-03-21T18:17:34.338Z,4.07
2019-03-21T18:20:00.510Z,2.87
2019-03-21T18:22:26.704Z,5.60
2019-03-21T18:24:53.984Z,4.43
2019-03-21T18:27:20.342Z,6.70
2019-03-21T18:29:46.395Z,2.53
2019-03-21T18:32:12.478Z,8.17
2019-03-21T18:34:38.515Z,3.43
2019-03-21T18:37:04.522Z,4.73
2019-03-21T18:39:30.547Z,6.33
2019-03-21T18:41:56.831Z,8.07
2019-03-21T18:44:22.862Z,3.47
2019-03-21T18:46:48.878Z,7.20
2019-03-21T18:49:14.931Z,24.27
2019-03-21T18:51:40.943Z,24.13
2019-03-21T18:54:07.359Z,16.53
2019-03-21T18:56:33.707Z,13.37
2019-03-21T18:58:59.724Z,6.40
2019-03-21T19:01:25.735Z,6.27
2019-03-21T19:03:51.790Z,8.10
2019-03-21T19:06:18.100Z,3.47
2019-03-21T19:08:44.123Z,3.20
2019-03-21T19:11:10.454Z,2.60
2019-03-21T19:13:36.492Z,5.50
2019-03-21T19:16:02.520Z,15.33
2019-03-21T19:18:28.938Z,44.50
2019-03-21T19:20:54.989Z,27.00
2019-03-21T19:23:21.294Z,18.37
2019-03-21T19:25:47.339Z,10.87
2019-03-21T19:28:13.459Z,5.37
2019-03-21T19:30:39.471Z,4.40
2019-03-21T19:33:05.511Z,5.73
2019-03-21T19:35:31.854Z,8.67
2019-03-21T19:37:57.950Z,8.93
2019-03-21T19:40:23.966Z,12.47
2019-03-21T19:42:50.083Z,8.57
2019-03-21T19:45:17.447Z,7.90
2019-03-21T19:47:43.464Z,16.17
2019-03-21T19:50:13.014Z,9.33
2019-03-21T19:52:39.022Z,6.93
2019-03-21T19:55:05.361Z,8.13
2019-03-21T19:57:31.485Z,5.73
2019-03-21T19:59:57.498Z,6.83
2019-03-21T20:02:23.506Z,9.80
2019-03-21T20:04:53.636Z,78.40
2019-03-21T20:07:19.654Z,144.90
2019-03-21T20:09:45.723Z,47.87
2019-03-21T20:12:12.079Z,13.30
2019-03-21T20:14:38.419Z,5.87
2019-03-21T20:17:04.418Z,8.20
2019-03-21T20:19:30.779Z,6.57
2019-03-21T20:21:56.794Z,10.43
2019-03-21T20:24:22.830Z,17.17
2019-03-21T20:26:48.853Z,26.13
2019-03-21T20:29:14.983Z,33.50
2019-03-21T20:31:41.016Z,33.53
2019-03-21T20:34:07.039Z,41.80
2019-03-21T20:36:33.043Z,24.60
2019-03-21T20:38:59.302Z,17.47
2019-03-21T20:41:25.351Z,14.57
2019-03-21T20:43:51.395Z,12.00
2019-03-21T20:46:17.441Z,8.43
2019-03-21T20:48:43.260Z,8.60
2019-03-21T20:51:09.509Z,9.17
2019-03-21T20:53:35.827Z,9.20
2019-03-21T20:56:01.836Z,9.53
2019-03-21T20:58:27.844Z,7.03
2019-03-21T21:00:53.980Z,5.90
2019-03-21T21:03:19.982Z,9.67
2019-03-21T21:05:46.007Z,8.60
2019-03-21T21:08:12.006Z,6.27
2019-03-21T21:10:38.031Z,10.13
2019-03-21T21:13:04.038Z,8.50
2019-03-21T21:15:30.069Z,5.30
2019-03-21T21:17:56.378Z,4.00
2019-03-21T21:20:22.399Z,7.03
2019-03-21T21:22:48.734Z,6.47
2019-03-21T21:25:15.263Z,4.60
2019-03-21T21:27:49.325Z,9.50
2019-03-21T21:30:14.944Z,5.90
2019-03-21T21:32:41.227Z,7.13
2019-03-21T21:35:07.850Z,9.13
2019-03-21T21:37:34.826Z,24.73
2019-03-21T21:40:01.146Z,21.97
2019-03-21T21:42:27.334Z,21.83
2019-03-21T21:44:53.354Z,19.80
2019-03-21T21:47:19.364Z,21.23
2019-03-21T21:49:45.382Z,17.90
2019-03-21T21:52:11.406Z,16.90
2019-03-21T21:54:37.430Z,17.37
2019-03-21T21:57:03.446Z,10.43
2019-03-21T21:59:29.490Z,10.03
2019-03-21T22:01:55.507Z,10.57
2019-03-21T22:04:21.796Z,15.97
2019-03-21T22:06:47.807Z,15.57
2019-03-21T22:09:13.820Z,14.23
2019-03-21T22:11:39.839Z,5.87
2019-03-21T22:14:05.847Z,7.00
2019-03-21T22:16:31.874Z,4.63
2019-03-21T22:18:57.899Z,4.93
2019-03-21T22:21:23.926Z,3.77
2019-03-21T22:23:49.942Z,4.17
2019-03-21T22:26:15.969Z,3.47
2019-03-21T22:28:42.242Z,3.17
2019-03-21T22:31:08.266Z,6.77
2019-03-21T22:33:34.297Z,7.43
2019-03-21T22:36:00.303Z,2.60
2019-03-21T22:38:26.327Z,6.70
2019-03-21T22:40:52.379Z,3.97
2019-03-21T22:43:18.473Z,6.63
2019-03-21T22:45:44.470Z,5.77
2019-03-21T22:48:14.124Z,4.50
2019-03-21T22:50:40.142Z,3.43
2019-03-21T22:53:06.202Z,2.43
2019-03-21T22:55:32.223Z,3.93
2019-03-21T22:57:58.244Z,5.57
2019-03-21T23:00:28.951Z,4.03
2019-03-21T23:02:55.589Z,3.17
2019-03-21T23:05:21.594Z,5.33
2019-03-21T23:07:47.612Z,4.80
2019-03-21T23:10:14.024Z,4.53
2019-03-21T23:12:41.024Z,7.50
2019-03-21T23:15:09.244Z,5.27
2019-03-21T23:17:35.419Z,4.43
2019-03-21T23:20:04.595Z,2.43
2019-03-21T23:22:30.859Z,3.80
2019-03-21T23:24:56.882Z,4.40
2019-03-21T23:27:22.998Z,3.77
2019-03-21T23:29:49.056Z,3.60
2019-03-21T23:32:15.080Z,2.97
2019-03-21T23:34:41.091Z,3.87
2019-03-21T23:37:07.160Z,4.40
2019-03-21T23:39:33.395Z,4.23
2019-03-21T23:41:59.867Z,5.07
2019-03-21T23:44:25.887Z,4.20
2019-03-21T23:46:51.902Z,2.23
2019-03-21T23:49:17.927Z,3.63
2019-03-21T23:51:43.960Z,4.57
2019-03-21T23:54:09.976Z,2.57
2019-03-21T23:56:35.983Z,6.43
2019-03-21T23:59:02.011Z,3.47
